Nearby METAR Reports

 

K8A0 - Albertville Muni, Alabama, USA
Distance from station: SW 1mi, 2km
Updated: 04/25/2019 5:35pm
Mostly cloudy
Mostly cloudy
 Wind from SSE
Wind: SSE 8 mph , 13 km/h
Temperature: 59°F , 15°C
Dew Point: 55°F , 13°C
Humidity: 88%
Barometer: 29.80 inHg , 1009.1 hPa
Clouds: Mostly cloudy
Visibility: 10 miles , 16 km
Cloud details: Mostly cloudy 11000 ft
2019/04/25 22:35 K8A0 252235Z AUTO 15007KT 10SM BKN110 15/13 A2980 RMK AO2
KGAD - Gadsden Muni, Alabama, USA
Distance from station: SSE 21mi, 35km
Updated: 04/25/2019 4:56pm
Light rain, Few clouds
Light rain, Few clouds
 Wind from SE
Wind: SE 5 mph , 7 km/h
Temperature: 63°F , 17°C
Dew Point: 63°F , 17°C
Humidity: 100%
Barometer: 29.86 inHg , 1011.2 hPa
Summary: Light rain
Clouds: Few Clouds
Visibility: 10 miles , 16 km
Cloud details: Few Clouds 10000 ft
2019/04/25 21:56 KGAD 252156Z AUTO 14004KT 10SM -RA FEW100 17/17 A2986 RMK AO2 RAB04 SLP114 P0000 T01720172
 
K4A6 - Scottsboro, Alabama, USA
Distance from station: NNE 33mi, 53km
Updated: 04/25/2019 5:55pm
Clear
Clear
 Wind from varies
Wind: varies 5 mph , 7 km/h
Temperature: 64°F , 18°C
Dew Point: 64°F , 18°C
Humidity: 100%
Barometer: 29.77 inHg , 1008.1 hPa
Clouds: Clear
Visibility: 10 miles , 16 km
2019/04/25 22:55 K4A6 252255Z AUTO VRB04KT 10SM CLR 18/18 A2977 RMK AO2
K4A9 - Ft Payne/Isbell, Alabama, USA
Distance from station: ENE 33mi, 54km
Updated: 04/25/2019 5:35pm
Mostly cloudy
Mostly cloudy
 Wind from S
Wind: S 5 mph , 7 km/h
Temperature: 64°F , 18°C
Dew Point: 59°F , 15°C
Humidity: 83%
Barometer: 29.81 inHg , 1009.5 hPa
Clouds: Mostly cloudy
Visibility: 10 miles , 16 km
Cloud details: Partly cloudy 7500 ft
Partly cloudy 9000 ft
Mostly cloudy 11000 ft
2019/04/25 22:35 K4A9 252235Z AUTO 18004KT 10SM SCT075 SCT090 BKN110 18/15 A2981 RMK AO2 T01770155
 
KCMD - Cullman/Folsom F, Alabama, USA
Distance from station: W 35mi, 57km
Updated: 04/25/2019 5:35pm
Mostly cloudy
Mostly cloudy
 Wind from S
Wind: S 5 mph , 7 km/h
Temperature: 59°F , 15°C
Dew Point: 57°F , 14°C
Humidity: 94%
Barometer: 29.83 inHg , 1010.2 hPa
Clouds: Mostly cloudy
Visibility: 10 miles , 16 km
Cloud details: Mostly cloudy 600 ft
Mostly cloudy 7000 ft
2019/04/25 22:35 KCMD 252235Z AUTO 18004KT 10SM BKN006 BKN070 15/14 A2983 RMK AO2 T01510142
KHUA - Redstone Arsenal, Alabama, USA
Distance from station: NW 40mi, 64km
Updated: 04/25/2019 4:58pm
Mostly cloudy
Mostly cloudy
 Wind from SW
Wind: SW 8 mph , 13 km/h
Temperature: 63°F , 17°C
Dew Point: 59°F , 15°C
Humidity: 88%
Barometer: 29.77 inHg , 1008.1 hPa
Clouds: Mostly cloudy
Visibility: 10 miles , 16 km
Cloud details: Few Clouds 6000 ft
Mostly cloudy 9500 ft
2019/04/25 21:58 KHUA 252158Z AUTO 22007KT 10SM FEW060 BKN095 17/15 A2977 RMK AO2 LTG DSNT S RAE2058RAB28E41 SLP078 P0000 T01680153
 
KHSV - Huntsville, Alabama, USA
Distance from station: NW 42mi, 68km
Updated: 04/25/2019 5:53pm
Overcast
Overcast
 Wind from SSE
Wind: SSE 7 mph , 11 km/h
Temperature: 63°F , 17°C
Dew Point: 63°F , 17°C
Humidity: 100%
Barometer: 29.77 inHg , 1008.1 hPa
Clouds: Overcast
Visibility: 10 miles , 16 km
Cloud details: Overcast 6000 ft
2019/04/25 22:53 KHSV 252253Z 16006KT 10SM OVC060 17/17 A2977 RMK AO2 SLP078 T01720172
KMDQ - Huntsville/Madis, Alabama, USA
Distance from station: NNW 47mi, 75km
Updated: 04/25/2019 5:35pm
Partly cloudy
Partly cloudy
 Wind from SW
Wind: SW 7 mph , 11 km/h
Temperature: 63°F , 17°C
Dew Point: 59°F , 15°C
Humidity: 88%
Barometer: 29.78 inHg , 1008.5 hPa
Clouds: Partly cloudy
Visibility: 10 miles , 16 km
Cloud details: Partly cloudy 7000 ft
2019/04/25 22:35 KMDQ 252235Z AUTO 22006KT 10SM SCT070 17/15 A2978 RMK A02 T01720152
 
KASN - Talladega, Alabama, USA
Distance from station: SSE 48mi, 77km
Updated: 04/25/2019 5:35pm
Drizzle, Partly cloudy
Drizzle, Partly cloudy
 Wind from S
Wind: S 6 mph , 9 km/h
Temperature: 63°F , 17°C
Dew Point: 61°F , 16°C
Humidity: 94%
Barometer: 29.87 inHg , 1011.5 hPa
Summary: Drizzle
Clouds: Partly cloudy
Visibility: 10 miles , 16 km
Cloud details: Partly cloudy 10000 ft
2019/04/25 22:35 KASN 252235Z AUTO 17005KT 10SM DZ SCT100 17/16 A2987 RMK AO2 T01670157
KDCU - Decatur, Alabama, USA
Distance from station: NW 49mi, 80km
Updated: 04/25/2019 5:53pm
Overcast
Overcast
 Wind from S
Wind: S 13 mph , 20 km/h
Temperature: 63°F , 17°C
Dew Point: 59°F , 15°C
Humidity: 88%
Barometer: 29.77 inHg , 1008.1 hPa
Clouds: Overcast
Visibility: 10 miles , 16 km
Cloud details: Overcast 5500 ft
2019/04/25 22:53 KDCU 252253Z AUTO 18011KT 10SM OVC055 17/15 A2977 RMK AO2 SLP078 T01720150
 
KGKT - Sevierville, Tennessee, USA
Distance from station: NE 235mi, 378km
Updated: 04/25/2019 5:35pm
Mostly cloudy
Mostly cloudy
 Wind from calm
Wind: Calm
Temperature: 72°F , 22°C
Dew Point: 63°F , 17°C
Humidity: 73%
Barometer: 29.80 inHg , 1009.1 hPa
Clouds: Mostly cloudy
Visibility: 10 miles , 16 km
Cloud details: Few Clouds 2700 ft
Mostly cloudy 8000 ft
2019/04/25 22:35 KGKT 252235Z AUTO 00000KT 10SM FEW027 BKN080 22/17 A2980 RMK A01
KECP - Panama City, Florida, USA
Distance from station: S 330mi, 531km
Updated: 04/25/2019 5:53pm
Partly cloudy
Partly cloudy
 
Temperature: 73°F , 23°C
Dew Point: 66°F , 19°C
Humidity: 78%
Barometer: 29.86 inHg , 1011.2 hPa
Clouds: Partly cloudy
Visibility: 10 miles , 16 km
Cloud details: Few Clouds 1900 ft
Partly cloudy 5500 ft
2019/04/25 22:53 KECP 252253Z 10SM FEW019 SCT055 23/19 A2986 RMK AO2 SLP124 T02280194
 
KNYL - Yuma MCAS, Arizona, USA
Distance from station: SW 1900mi, 3600km
Updated: 04/25/2019 4:57pm
Few Clouds
Few Clouds
 Wind from SSW
Wind: SSW 8 mph , 13 km/h
Temperature: 99°F , 37°C
Dew Point: 39°F , 4°C
Humidity: 13%
Barometer: 29.83 inHg , 1010.2 hPa
Clouds: Few Clouds
Visibility: 7 miles , 11 km
Cloud details: Few Clouds 30000 ft
2019/04/25 21:57 KNYL 252157Z 20007KT 7SM FEW300 37/04 A2983 RMK AO2 SLP097 T03670039 $